createdAt,value
2023-06-13T00:01:07.325Z,19.10
2023-06-13T00:03:35.358Z,19.10
2023-06-13T00:06:03.789Z,19.20
2023-06-13T00:08:33.548Z,19.10
2023-06-13T00:11:01.582Z,19.20
2023-06-13T00:13:30.043Z,19.20
2023-06-13T00:15:59.820Z,19.10
2023-06-13T00:18:31.916Z,19.00
2023-06-13T00:21:00.733Z,18.90
2023-06-13T00:23:28.906Z,18.80
2023-06-13T00:25:57.826Z,18.80
2023-06-13T00:28:26.094Z,18.80
2023-06-13T00:30:54.130Z,18.60
2023-06-13T00:33:22.270Z,18.60
2023-06-13T00:35:51.614Z,18.50
2023-06-13T00:38:22.428Z,18.50
2023-06-13T00:40:51.828Z,18.50
2023-06-13T00:43:19.890Z,18.40
2023-06-13T00:45:48.149Z,18.40
2023-06-13T00:48:16.844Z,18.40
2023-06-13T00:50:45.930Z,18.30
2023-06-13T00:53:19.123Z,18.20
2023-06-13T00:55:48.288Z,18.00
2023-06-13T00:58:17.242Z,18.00
2023-06-13T01:00:46.667Z,18.00
2023-06-13T01:03:17.093Z,17.90
2023-06-13T01:05:46.724Z,18.00
2023-06-13T01:08:18.758Z,17.90
2023-06-13T01:10:50.100Z,17.70
2023-06-13T01:13:29.473Z,17.80
2023-06-13T01:16:17.337Z,17.60
2023-06-13T01:18:50.391Z,17.70
2023-06-13T01:21:19.455Z,17.70
2023-06-13T01:23:54.782Z,17.70
2023-06-13T01:26:41.000Z,17.70
2023-06-13T01:29:09.654Z,17.60
2023-06-13T01:31:38.715Z,17.60
2023-06-13T01:34:07.232Z,17.50
2023-06-13T01:36:36.202Z,17.50
2023-06-13T01:39:05.618Z,17.30
2023-06-13T01:41:33.796Z,17.30
2023-06-13T01:44:06.078Z,17.30
2023-06-13T01:46:46.767Z,17.20
2023-06-13T01:49:22.094Z,17.20
2023-06-13T01:52:01.133Z,17.10
2023-06-13T01:54:32.787Z,17.10
2023-06-13T01:57:06.229Z,17.10
2023-06-13T01:59:36.892Z,17.10
2023-06-13T02:02:05.929Z,17.00
2023-06-13T02:04:40.961Z,17.00
2023-06-13T02:07:09.715Z,17.10
2023-06-13T02:09:37.842Z,17.10
2023-06-13T02:12:07.777Z,17.20
2023-06-13T02:14:37.909Z,17.20
2023-06-13T02:17:07.631Z,17.40
2023-06-13T02:19:35.929Z,17.20
2023-06-13T02:22:03.964Z,17.10
2023-06-13T02:24:31.984Z,17.00
2023-06-13T02:27:00.532Z,17.00
2023-06-13T02:29:28.571Z,17.00
2023-06-13T02:31:58.380Z,16.90
2023-06-13T02:34:26.375Z,16.80
2023-06-13T02:36:54.484Z,16.80
2023-06-13T02:39:23.631Z,16.80
2023-06-13T02:41:51.647Z,16.70
2023-06-13T02:44:19.653Z,16.60
2023-06-13T02:46:47.750Z,16.60
2023-06-13T02:49:17.075Z,16.50
2023-06-13T02:51:45.064Z,16.50
2023-06-13T02:54:13.294Z,16.50
2023-06-13T02:56:41.344Z,16.60
2023-06-13T02:59:09.367Z,16.50
2023-06-13T03:01:37.475Z,16.60
2023-06-13T03:04:11.516Z,16.70
2023-06-13T03:06:42.229Z,16.70
2023-06-13T03:09:12.981Z,16.70
2023-06-13T03:11:41.032Z,16.70
2023-06-13T03:14:09.430Z,16.70
2023-06-13T03:16:37.935Z,16.60
2023-06-13T03:19:06.591Z,16.70
2023-06-13T03:21:34.661Z,16.70
2023-06-13T03:24:04.562Z,16.70
2023-06-13T03:26:38.948Z,16.50
2023-06-13T03:29:10.027Z,16.50
2023-06-13T03:31:38.246Z,16.50
2023-06-13T03:34:06.994Z,16.50
2023-06-13T03:36:35.637Z,16.50
2023-06-13T03:39:05.552Z,16.50
2023-06-13T03:41:36.935Z,16.50
2023-06-13T03:44:05.033Z,16.40
2023-06-13T03:46:33.093Z,16.40
2023-06-13T03:49:01.240Z,16.50
2023-06-13T03:51:29.288Z,16.60
2023-06-13T03:53:57.316Z,16.60
2023-06-13T03:56:27.817Z,16.60
2023-06-13T03:58:56.531Z,16.70
2023-06-13T04:01:25.756Z,16.70
2023-06-13T04:03:53.930Z,16.70
2023-06-13T04:06:22.215Z,16.70
2023-06-13T04:08:51.314Z,16.70
2023-06-13T04:11:19.396Z,16.80
2023-06-13T04:13:48.755Z,16.80
2023-06-13T04:16:16.982Z,17.00
2023-06-13T04:18:45.538Z,17.00
2023-06-13T04:21:13.907Z,17.10
2023-06-13T04:23:42.334Z,17.20
2023-06-13T04:26:10.502Z,17.30
2023-06-13T04:28:38.578Z,17.30
2023-06-13T04:31:08.601Z,17.30
2023-06-13T04:33:38.634Z,17.40
2023-06-13T04:36:07.316Z,17.40
2023-06-13T04:38:36.211Z,17.50
2023-06-13T04:41:04.456Z,17.60
2023-06-13T04:43:34.810Z,17.70
2023-06-13T04:46:08.072Z,17.70
2023-06-13T04:48:39.190Z,17.80
2023-06-13T04:51:10.197Z,17.90
2023-06-13T04:53:39.688Z,18.00
2023-06-13T04:56:07.999Z,18.10
2023-06-13T04:58:36.620Z,18.30
2023-06-13T05:01:04.668Z,18.50
2023-06-13T05:03:32.808Z,18.70
2023-06-13T05:06:02.285Z,18.80
2023-06-13T05:08:31.532Z,19.00
2023-06-13T05:10:59.752Z,19.20
2023-06-13T05:13:27.823Z,19.30
2023-06-13T05:15:56.822Z,19.50
2023-06-13T05:18:26.036Z,19.60
2023-06-13T05:20:54.113Z,19.70
2023-06-13T05:23:23.459Z,19.90
2023-06-13T05:25:51.729Z,20.10
2023-06-13T05:28:21.101Z,20.10
2023-06-13T05:30:49.506Z,20.10
2023-06-13T05:33:17.682Z,20.20
2023-06-13T05:35:57.051Z,20.40
2023-06-13T05:38:27.550Z,20.40
2023-06-13T05:40:55.620Z,20.60
2023-06-13T05:43:24.101Z,20.80
2023-06-13T05:45:52.471Z,20.80
2023-06-13T05:48:20.627Z,20.70
2023-06-13T05:50:48.754Z,20.70
2023-06-13T05:53:16.755Z,20.70
2023-06-13T05:55:46.161Z,20.70
2023-06-13T05:58:14.287Z,20.80
2023-06-13T06:00:42.467Z,20.90
2023-06-13T06:03:10.733Z,20.90
2023-06-13T06:05:38.815Z,20.80
2023-06-13T06:08:07.506Z,20.90
2023-06-13T06:10:36.170Z,21.00
2023-06-13T06:13:05.569Z,20.90
2023-06-13T06:15:36.077Z,21.00
2023-06-13T06:18:04.434Z,21.10
2023-06-13T06:20:32.574Z,21.00
2023-06-13T06:23:00.601Z,21.10
2023-06-13T06:25:28.605Z,21.20
2023-06-13T06:27:57.553Z,21.30
2023-06-13T06:30:29.577Z,21.20
2023-06-13T06:32:59.359Z,21.20
2023-06-13T06:35:27.674Z,21.10
2023-06-13T06:37:56.021Z,21.30
2023-06-13T06:40:24.072Z,21.40
2023-06-13T06:42:52.126Z,21.50
2023-06-13T06:45:29.633Z,21.60
2023-06-13T06:47:57.930Z,21.50
2023-06-13T06:50:26.074Z,21.50
2023-06-13T06:52:54.451Z,21.60
2023-06-13T06:55:22.472Z,21.60
2023-06-13T06:57:50.601Z,21.60
2023-06-13T07:00:19.395Z,21.80
2023-06-13T07:02:48.894Z,21.90
2023-06-13T07:05:17.149Z,22.00
2023-06-13T07:07:45.418Z,21.90
2023-06-13T07:10:14.128Z,22.10
2023-06-13T07:12:43.461Z,22.30
2023-06-13T07:15:11.493Z,22.30
2023-06-13T07:17:39.666Z,22.30
2023-06-13T07:20:12.695Z,22.40
2023-06-13T07:22:41.411Z,22.40
2023-06-13T07:25:09.518Z,22.60
2023-06-13T07:27:38.134Z,22.70
2023-06-13T07:30:06.976Z,22.60
2023-06-13T07:32:35.002Z,22.60
2023-06-13T07:35:06.682Z,22.70
2023-06-13T07:37:38.016Z,22.70
2023-06-13T07:40:09.005Z,22.70
2023-06-13T07:42:37.136Z,22.80
2023-06-13T07:45:06.517Z,22.80
2023-06-13T07:47:34.574Z,22.90
2023-06-13T07:50:02.658Z,23.00
2023-06-13T07:52:31.543Z,23.10
2023-06-13T07:55:01.117Z,23.20
2023-06-13T07:57:44.291Z,23.30
2023-06-13T08:00:19.043Z,23.30
2023-06-13T08:02:47.744Z,23.40
2023-06-13T08:05:17.361Z,23.40
2023-06-13T08:07:45.440Z,23.50
2023-06-13T08:10:15.081Z,23.60
2023-06-13T08:12:43.351Z,23.70
2023-06-13T08:15:12.506Z,23.80
2023-06-13T08:17:43.172Z,23.80
2023-06-13T08:20:12.400Z,23.80
2023-06-13T08:22:41.908Z,23.70
2023-06-13T08:25:10.613Z,23.90
2023-06-13T08:27:40.310Z,23.90
2023-06-13T08:30:09.271Z,24.10
2023-06-13T08:32:39.605Z,23.90
2023-06-13T08:35:08.262Z,23.90
2023-06-13T08:37:36.531Z,24.20
2023-06-13T08:40:07.042Z,24.30
2023-06-13T08:42:35.317Z,24.40
2023-06-13T08:45:05.376Z,24.40
2023-06-13T08:47:38.294Z,24.40
2023-06-13T08:50:08.200Z,24.20
2023-06-13T08:52:40.681Z,24.40
2023-06-13T08:55:34.421Z,24.50
2023-06-13T08:58:02.979Z,24.60
2023-06-13T09:00:36.807Z,24.60
2023-06-13T09:03:06.664Z,25.00
2023-06-13T09:05:35.178Z,25.10
2023-06-13T09:08:27.904Z,25.00
2023-06-13T09:10:53.880Z,25.10
2023-06-13T09:13:26.438Z,25.00
2023-06-13T09:15:57.252Z,25.20
2023-06-13T09:18:26.824Z,25.20
2023-06-13T09:20:55.372Z,25.00
2023-06-13T09:23:23.530Z,25.10
2023-06-13T09:25:53.641Z,25.10
2023-06-13T09:28:32.086Z,25.50
2023-06-13T09:31:02.126Z,25.60
2023-06-13T09:33:30.348Z,25.70
2023-06-13T09:35:59.760Z,25.70
2023-06-13T09:38:30.927Z,25.50
2023-06-13T09:40:59.308Z,25.60
2023-06-13T09:43:28.665Z,25.60
2023-06-13T09:45:56.901Z,25.70
2023-06-13T09:48:26.938Z,25.60
2023-06-13T09:50:55.138Z,25.70
2023-06-13T09:53:23.892Z,25.90
2023-06-13T09:55:51.937Z,26.20
2023-06-13T09:58:31.831Z,26.00
2023-06-13T10:01:01.373Z,26.40
2023-06-13T10:03:31.347Z,26.90
2023-06-13T10:06:00.308Z,27.00
2023-06-13T10:08:29.368Z,27.20
2023-06-13T10:10:59.393Z,26.90
2023-06-13T10:13:30.525Z,27.20
2023-06-13T10:16:00.530Z,27.20
2023-06-13T10:18:36.859Z,26.80
2023-06-13T10:21:07.409Z,27.30
2023-06-13T10:23:39.876Z,27.40
2023-06-13T10:26:10.455Z,27.60
2023-06-13T10:29:13.974Z,27.60
2023-06-13T10:31:56.568Z,26.60
2023-06-13T10:34:44.139Z,27.10
2023-06-13T10:37:40.157Z,27.00
2023-06-13T10:40:39.380Z,27.00
2023-06-13T10:43:16.034Z,26.90
2023-06-13T10:45:47.158Z,27.50
2023-06-13T10:48:15.287Z,28.20
2023-06-13T10:50:46.023Z,28.40
2023-06-13T10:53:26.616Z,29.00
2023-06-13T10:56:01.639Z,29.30
2023-06-13T10:58:30.335Z,29.70
2023-06-13T11:00:58.687Z,29.90
2023-06-13T11:03:32.164Z,29.60
2023-06-13T11:06:07.534Z,29.80
2023-06-13T11:08:38.156Z,30.40
2023-06-13T11:11:07.213Z,30.80
2023-06-13T11:13:36.514Z,30.40
2023-06-13T11:16:21.323Z,30.60
2023-06-13T11:18:49.778Z,30.10
2023-06-13T11:21:19.387Z,29.60
2023-06-13T11:23:51.691Z,30.40
2023-06-13T11:26:23.418Z,30.40
2023-06-13T11:28:52.902Z,30.10
2023-06-13T11:31:21.722Z,29.60
2023-06-13T11:33:52.218Z,29.60
2023-06-13T11:36:25.250Z,30.00
2023-06-13T11:38:59.646Z,29.70
2023-06-13T11:41:28.737Z,28.70
2023-06-13T11:43:58.368Z,28.10
2023-06-13T11:46:26.608Z,28.90
2023-06-13T11:48:58.229Z,29.40
2023-06-13T11:51:30.040Z,29.70
2023-06-13T11:54:00.749Z,28.10
2023-06-13T11:56:29.519Z,28.30
2023-06-13T11:58:58.817Z,28.80
2023-06-13T12:01:28.838Z,28.90
2023-06-13T12:04:00.021Z,29.40
2023-06-13T12:06:30.142Z,29.90
2023-06-13T12:08:58.794Z,30.20
2023-06-13T12:11:30.364Z,30.30
2023-06-13T12:14:01.140Z,30.00
2023-06-13T12:16:31.201Z,30.20
2023-06-13T12:19:00.533Z,30.10
2023-06-13T12:21:31.982Z,30.00
2023-06-13T12:24:02.306Z,29.10
2023-06-13T12:26:34.662Z,29.20
2023-06-13T12:29:05.551Z,29.30
2023-06-13T12:31:36.801Z,29.20
2023-06-13T12:34:14.827Z,29.10
2023-06-13T12:36:46.258Z,29.30
2023-06-13T12:39:15.927Z,29.40
2023-06-13T12:41:49.251Z,29.70
2023-06-13T12:44:18.105Z,29.90
2023-06-13T12:46:47.171Z,29.40
2023-06-13T12:49:16.523Z,29.40
2023-06-13T12:51:47.065Z,29.50
2023-06-13T12:54:16.651Z,29.20
2023-06-13T12:56:55.510Z,29.20
2023-06-13T12:59:33.828Z,29.30
2023-06-13T13:02:03.217Z,29.30
2023-06-13T13:04:35.484Z,29.40
2023-06-13T13:07:05.855Z,29.70
2023-06-13T13:09:34.721Z,29.50
2023-06-13T13:12:03.106Z,29.50
2023-06-13T13:14:31.609Z,28.80
2023-06-13T13:16:59.908Z,28.80
2023-06-13T13:19:28.006Z,29.00
2023-06-13T13:21:57.400Z,29.20
2023-06-13T13:24:27.654Z,29.40
2023-06-13T13:26:57.013Z,29.10
2023-06-13T13:29:26.008Z,28.90
2023-06-13T13:31:54.424Z,29.00
2023-06-13T13:34:26.077Z,28.80
2023-06-13T13:36:55.239Z,28.50
2023-06-13T13:39:24.414Z,28.80
2023-06-13T13:41:54.573Z,29.00
2023-06-13T13:44:23.150Z,29.10
2023-06-13T13:46:51.633Z,29.30
2023-06-13T13:49:19.796Z,29.30
2023-06-13T13:51:49.983Z,29.30
2023-06-13T13:54:18.242Z,29.40
2023-06-13T13:56:46.449Z,29.20
2023-06-13T13:59:16.040Z,29.20
2023-06-13T14:01:44.145Z,29.20
2023-06-13T14:04:14.652Z,29.00
2023-06-13T14:06:43.974Z,29.10
2023-06-13T14:09:14.216Z,29.00
2023-06-13T14:11:42.270Z,28.80
2023-06-13T14:14:10.774Z,28.70
2023-06-13T14:16:40.374Z,28.70
2023-06-13T14:19:08.410Z,28.90
2023-06-13T14:21:36.387Z,29.10
2023-06-13T14:24:04.773Z,29.20
2023-06-13T14:26:32.961Z,29.20
2023-06-13T14:29:01.072Z,29.00
2023-06-13T14:31:29.847Z,28.90
2023-06-13T14:33:59.439Z,28.90
2023-06-13T14:36:27.619Z,28.90
2023-06-13T14:38:55.624Z,28.80
2023-06-13T14:41:24.209Z,28.90
2023-06-13T14:43:52.266Z,28.70
2023-06-13T14:46:20.539Z,28.50
2023-06-13T14:48:48.592Z,28.70
2023-06-13T14:51:18.599Z,28.60
2023-06-13T14:53:46.984Z,28.60
2023-06-13T14:56:15.045Z,28.70
2023-06-13T14:58:43.051Z,28.60
2023-06-13T15:01:11.153Z,28.50
2023-06-13T15:03:41.510Z,28.50
2023-06-13T15:06:09.703Z,28.50
2023-06-13T15:08:40.439Z,28.60
2023-06-13T15:11:11.319Z,28.70
2023-06-13T15:13:39.384Z,28.90
2023-06-13T15:16:08.507Z,28.80
2023-06-13T15:18:37.783Z,28.90
2023-06-13T15:21:06.227Z,28.80
2023-06-13T15:23:34.492Z,28.60
2023-06-13T15:26:04.544Z,28.50
2023-06-13T15:28:32.831Z,28.50
2023-06-13T15:31:01.056Z,28.40
2023-06-13T15:33:33.244Z,28.10
2023-06-13T15:36:03.970Z,28.00
2023-06-13T15:38:32.399Z,28.10
2023-06-13T15:41:00.690Z,28.20
2023-06-13T15:43:30.091Z,28.20
2023-06-13T15:45:58.506Z,28.30
2023-06-13T15:48:26.652Z,28.20
2023-06-13T15:50:54.705Z,28.10
2023-06-13T15:53:22.743Z,28.20
2023-06-13T15:55:51.284Z,28.00
2023-06-13T15:58:19.426Z,27.90
2023-06-13T16:00:48.820Z,28.00
2023-06-13T16:03:16.978Z,27.90
2023-06-13T16:05:45.271Z,27.90
2023-06-13T16:08:13.489Z,27.80
2023-06-13T16:10:41.540Z,27.80
2023-06-13T16:13:09.549Z,27.90
2023-06-13T16:15:37.559Z,28.00
2023-06-13T16:18:07.272Z,28.10
2023-06-13T16:20:35.409Z,28.10
2023-06-13T16:23:03.433Z,28.10
2023-06-13T16:25:31.700Z,28.00
2023-06-13T16:28:01.497Z,27.90
2023-06-13T16:30:29.570Z,27.90
2023-06-13T16:32:58.069Z,27.70
2023-06-13T16:35:27.594Z,27.80
2023-06-13T16:37:55.593Z,27.70
2023-06-13T16:40:23.643Z,27.80
2023-06-13T16:42:52.281Z,27.70
2023-06-13T16:45:20.349Z,27.70
2023-06-13T16:47:48.515Z,27.60
2023-06-13T16:50:17.421Z,27.50
2023-06-13T16:52:47.460Z,27.60
2023-06-13T16:55:15.845Z,27.60
2023-06-13T16:57:44.052Z,27.60
2023-06-13T17:00:13.595Z,27.50
2023-06-13T17:02:41.740Z,27.60
2023-06-13T17:05:10.778Z,27.60
2023-06-13T17:07:40.801Z,27.50
2023-06-13T17:10:10.982Z,27.40
2023-06-13T17:12:43.374Z,27.40
2023-06-13T17:15:12.230Z,27.50
2023-06-13T17:17:40.790Z,27.20
2023-06-13T17:20:09.684Z,27.10
2023-06-13T17:22:38.255Z,27.30
2023-06-13T17:25:07.159Z,27.10
2023-06-13T17:27:36.741Z,27.10
2023-06-13T17:30:05.576Z,27.20
2023-06-13T17:32:34.021Z,27.00
2023-06-13T17:35:02.096Z,27.10
2023-06-13T17:37:30.114Z,27.10
2023-06-13T17:39:58.218Z,26.90
2023-06-13T17:42:26.407Z,26.80
2023-06-13T17:44:55.834Z,26.80
2023-06-13T17:47:23.878Z,26.80
2023-06-13T17:49:52.013Z,26.70
2023-06-13T17:52:22.058Z,26.60
2023-06-13T17:54:50.127Z,26.50
2023-06-13T17:57:18.209Z,26.50
2023-06-13T17:59:46.365Z,26.30
2023-06-13T18:02:16.197Z,26.10
2023-06-13T18:04:44.232Z,26.10
2023-06-13T18:07:12.763Z,26.00
2023-06-13T18:09:40.812Z,26.00
2023-06-13T18:12:20.707Z,26.00
2023-06-13T18:14:50.680Z,25.90
2023-06-13T18:17:20.087Z,26.00
2023-06-13T18:19:48.393Z,26.00
2023-06-13T18:22:16.696Z,25.90
2023-06-13T18:24:44.789Z,25.70
2023-06-13T18:27:13.313Z,25.70
2023-06-13T18:29:43.530Z,25.60
2023-06-13T18:32:13.103Z,25.60
2023-06-13T18:34:42.786Z,25.50
2023-06-13T18:37:10.986Z,25.40
2023-06-13T18:39:39.134Z,25.30
2023-06-13T18:42:08.653Z,25.20
2023-06-13T18:44:36.905Z,25.20
2023-06-13T18:47:05.443Z,25.10
2023-06-13T18:49:36.656Z,25.10
2023-06-13T18:52:08.763Z,25.00
2023-06-13T18:54:36.922Z,25.10
2023-06-13T18:57:05.620Z,25.00
2023-06-13T18:59:34.581Z,24.90
2023-06-13T19:02:02.769Z,24.80
2023-06-13T19:04:31.617Z,24.60
2023-06-13T19:06:59.719Z,24.60
2023-06-13T19:09:29.093Z,24.50
2023-06-13T19:11:57.186Z,24.40
2023-06-13T19:14:25.199Z,24.30
2023-06-13T19:16:53.484Z,24.30
2023-06-13T19:19:21.855Z,24.20
2023-06-13T19:21:50.171Z,24.20
2023-06-13T19:24:18.269Z,24.10
2023-06-13T19:26:47.753Z,24.20
2023-06-13T19:29:16.226Z,23.90
2023-06-13T19:31:44.222Z,23.90
2023-06-13T19:34:12.448Z,23.80
2023-06-13T19:36:40.901Z,23.70
2023-06-13T19:39:09.146Z,23.60
2023-06-13T19:41:37.238Z,23.50
2023-06-13T19:44:09.094Z,23.40
2023-06-13T19:46:37.707Z,23.30
2023-06-13T19:49:06.292Z,23.30
2023-06-13T19:51:35.264Z,23.30
2023-06-13T19:54:03.809Z,23.30
2023-06-13T19:56:33.260Z,23.20
2023-06-13T19:59:02.060Z,23.10
2023-06-13T20:01:31.674Z,23.10
2023-06-13T20:04:01.604Z,23.00
2023-06-13T20:06:31.957Z,23.00
2023-06-13T20:09:01.047Z,22.90
2023-06-13T20:11:29.265Z,22.80
2023-06-13T20:13:58.810Z,22.80
2023-06-13T20:16:27.647Z,22.70
2023-06-13T20:18:57.183Z,22.70
2023-06-13T20:21:25.358Z,22.70
2023-06-13T20:23:53.617Z,22.50
2023-06-13T20:26:21.628Z,22.40
2023-06-13T20:28:49.745Z,22.30
2023-06-13T20:31:18.213Z,22.20
2023-06-13T20:33:46.338Z,22.30
2023-06-13T20:36:15.768Z,22.20
2023-06-13T20:38:45.282Z,22.10
2023-06-13T20:41:13.580Z,22.00
2023-06-13T20:43:41.704Z,22.00
2023-06-13T20:46:10.230Z,22.00
2023-06-13T20:48:38.867Z,22.10
2023-06-13T20:51:07.599Z,22.10
2023-06-13T20:53:37.095Z,22.10
2023-06-13T20:56:05.303Z,22.10
2023-06-13T20:58:33.292Z,22.10
2023-06-13T21:01:01.951Z,22.00
2023-06-13T21:03:32.848Z,21.90
2023-06-13T21:06:01.543Z,21.80
2023-06-13T21:08:32.409Z,21.80
2023-06-13T21:11:01.729Z,21.80
2023-06-13T21:13:30.764Z,21.90
2023-06-13T21:15:59.941Z,21.90
2023-06-13T21:18:28.296Z,21.80
2023-06-13T21:20:58.363Z,21.60
2023-06-13T21:23:26.817Z,21.60
2023-06-13T21:25:54.876Z,21.60
2023-06-13T21:28:24.281Z,21.50
2023-06-13T21:30:52.633Z,21.30
2023-06-13T21:33:21.638Z,21.30
2023-06-13T21:35:52.406Z,21.30
2023-06-13T21:38:21.872Z,21.20
2023-06-13T21:40:49.905Z,21.20
2023-06-13T21:43:17.914Z,21.20
2023-06-13T21:45:48.668Z,21.30
2023-06-13T21:48:16.921Z,21.20
2023-06-13T21:50:44.896Z,21.10
2023-06-13T21:53:12.877Z,21.10
2023-06-13T21:55:40.872Z,21.10
2023-06-13T21:58:08.879Z,21.20
2023-06-13T22:00:38.279Z,21.10
2023-06-13T22:03:07.948Z,21.00
2023-06-13T22:05:35.983Z,20.80
2023-06-13T22:08:05.670Z,20.80
2023-06-13T22:10:34.607Z,20.70
2023-06-13T22:13:05.896Z,20.70
2023-06-13T22:15:34.019Z,20.60
2023-06-13T22:18:02.845Z,20.50
2023-06-13T22:20:34.457Z,20.20
2023-06-13T22:23:03.739Z,20.10
2023-06-13T22:25:31.951Z,20.10
2023-06-13T22:28:00.009Z,20.10
2023-06-13T22:30:28.030Z,19.90
2023-06-13T22:32:56.418Z,19.90
2023-06-13T22:35:24.918Z,19.80
2023-06-13T22:37:54.295Z,19.70
2023-06-13T22:40:22.298Z,19.70
2023-06-13T22:42:50.294Z,19.60
2023-06-13T22:45:18.380Z,19.60
2023-06-13T22:47:51.362Z,19.60
2023-06-13T22:50:19.558Z,19.50
2023-06-13T22:52:47.598Z,19.40
2023-06-13T22:55:17.070Z,19.40
2023-06-13T22:57:45.131Z,19.40
2023-06-13T23:00:15.390Z,19.30
2023-06-13T23:02:44.031Z,19.30
2023-06-13T23:05:12.278Z,19.20
2023-06-13T23:07:40.533Z,19.10
2023-06-13T23:10:09.401Z,19.10
2023-06-13T23:12:38.773Z,19.00
2023-06-13T23:15:07.835Z,19.00
2023-06-13T23:17:35.950Z,18.90
2023-06-13T23:20:06.212Z,18.90
2023-06-13T23:22:34.295Z,19.00
2023-06-13T23:25:03.531Z,19.00
2023-06-13T23:27:33.276Z,19.00
2023-06-13T23:30:05.877Z,19.00
2023-06-13T23:32:37.795Z,19.10
2023-06-13T23:35:09.188Z,19.10
2023-06-13T23:37:37.775Z,19.00
2023-06-13T23:40:07.727Z,19.00
2023-06-13T23:42:35.717Z,18.90
2023-06-13T23:45:05.900Z,18.90
2023-06-13T23:47:33.994Z,18.80
2023-06-13T23:50:02.036Z,18.30
2023-06-13T23:52:30.079Z,17.90
2023-06-13T23:54:58.104Z,18.00
2023-06-13T23:57:26.203Z,17.90
2023-06-13T23:59:55.048Z,17.90
